UKOO/ODS METAR and TAF weather

Enter ICAO airport designator
Station Type Date Time Source
UKOO METAR 2020/12/06 00:30 UTC NOAA

UKOO 060030Z 06007MPS 9999 BKN016 02/M01 Q1027 R34/090060 NOSIG


Station Type Date Time Source
UKOO Decoded METAR 2020/12/06 00:30 UTC NOAA

Odesa, Ukraine (UKOO) 46-26N 030-46E 42M
Dec 05, 2020 - 07:30 PM EST / 2020.12.06 0030 UTC
Wind: from the ENE (060 degrees) at 16 MPH (14 KT):0
Visibility: greater than 7 mile(s):0
Sky conditions: mostly cloudy
Temperature: 35 F (2 C)
Windchill: 24 F (-4 C):1
Dew Point: 30 F (-1 C)
Relative Humidity: 80%
Pressure (altimeter): 30.33 in. Hg (1027 hPa)
ob: UKOO 060030Z 06007MPS 9999 BKN016 02/M01 Q1027 R34/090060 NOSIG
cycle: 0

Station Type Date Time Source
UKOO TAF 2020/12/05 18:09 UTC NOAA

TAF UKOO 051706Z 0518/0618 08008G14MPS 2100 BR OVC004 TX03/0612Z TNM01/0601Z PROB40
TEMPO 0518/0607 0300 FZFG VV002
BECMG 0607/0608 07010G16MPS SCT004 BKN007 SCT015CB

Example: see airport list